YCBG weather

Hobart Cambridge Airport
Tasmania, Australia

Public forecast

Using degrees Celsius for public forecast. Weather courtesy of forecast.io.

METAR (pilot weather report)

Closest report is Hobart International Airport, 1.6 nm (3.0 km) ESE. Retrieved 2017/11/25 01:30 UTC (0 seconds ago):

YMHB 250130Z 15009KT 9999 FEW020 BKN110 20/15 Q1015 RF00.0/000.0

TAF (pilot weather forecast)

Forecast is more than 12 hours old.

Closest forecast is Hobart International Airport, 1.6 nm (3.0 km) ESE. Retrieved 2017/11/24 00:36 UTC (1 day ago):

TAF YMHB 242321Z 2500/2524 VRB05KT 9999 -SHRA SCT010 BKN015 BECMG 2500/2501 11010KT 9999 -SHRA SCT030 FM251200 VRB05KT 9999 -SHRA NSC